createdAt,value
2022-09-18T00:00:39.241Z,7.70
2022-09-18T00:01:39.633Z,5.90
2022-09-18T00:02:39.248Z,6.60
2022-09-18T00:03:39.208Z,6.90
2022-09-18T00:04:39.223Z,7.40
2022-09-18T00:05:39.189Z,7.00
2022-09-18T00:06:39.185Z,6.40
2022-09-18T00:07:39.571Z,7.40
2022-09-18T00:08:39.163Z,8.40
2022-09-18T00:09:39.160Z,7.80
2022-09-18T00:10:39.129Z,5.50
2022-09-18T00:11:39.129Z,5.70
2022-09-18T00:12:39.111Z,8.10
2022-09-18T00:13:39.279Z,6.80
2022-09-18T00:14:39.091Z,9.50
2022-09-18T00:15:39.078Z,6.50
2022-09-18T00:16:39.128Z,6.60
2022-09-18T00:17:39.057Z,4.20
2022-09-18T00:18:39.058Z,5.40
2022-09-18T00:19:39.225Z,5.90
2022-09-18T00:20:39.020Z,4.90
2022-09-18T00:21:39.015Z,6.50
2022-09-18T00:22:39.349Z,6.10
2022-09-18T00:23:38.999Z,9.10
2022-09-18T00:24:38.992Z,5.90
2022-09-18T00:25:38.970Z,8.20
2022-09-18T00:26:38.966Z,8.40
2022-09-18T00:27:38.947Z,7.00
2022-09-18T00:28:39.143Z,6.10
2022-09-18T00:29:38.927Z,5.20
2022-09-18T00:30:38.916Z,6.10
2022-09-18T00:31:38.933Z,3.60
2022-09-18T00:32:38.908Z,7.40
2022-09-18T00:33:38.878Z,5.50
2022-09-18T00:34:39.289Z,4.70
2022-09-18T00:35:38.856Z,5.80
2022-09-18T00:36:38.857Z,7.10
2022-09-18T00:37:38.837Z,8.70
2022-09-18T00:38:38.841Z,5.80
2022-09-18T00:39:38.818Z,8.70
2022-09-18T00:40:39.186Z,4.60
2022-09-18T00:41:38.793Z,5.70
2022-09-18T00:42:38.787Z,4.60
2022-09-18T00:43:38.770Z,7.70
2022-09-18T00:44:38.782Z,5.40
2022-09-18T00:45:38.757Z,6.50
2022-09-18T00:46:38.967Z,4.40
2022-09-18T00:47:38.736Z,5.00
2022-09-18T00:48:38.717Z,5.80
2022-09-18T00:49:38.708Z,6.90
2022-09-18T00:50:38.710Z,5.90
2022-09-18T00:51:38.687Z,8.10
2022-09-18T00:52:38.877Z,6.40
2022-09-18T00:53:38.669Z,5.50
2022-09-18T00:54:38.662Z,5.90
2022-09-18T00:55:38.646Z,6.40
2022-09-18T00:56:38.648Z,4.30
2022-09-18T00:57:38.620Z,5.40
2022-09-18T00:58:38.781Z,5.90
2022-09-18T00:59:38.598Z,8.00
2022-09-18T01:00:38.736Z,4.70
2022-09-18T01:01:38.644Z,7.10
2022-09-18T01:02:38.564Z,6.20
2022-09-18T01:03:38.556Z,5.00
2022-09-18T01:04:38.774Z,8.30
2022-09-18T01:05:38.542Z,6.10
2022-09-18T01:06:38.521Z,6.80
2022-09-18T01:07:38.515Z,6.90
2022-09-18T01:08:41.894Z,7.00
2022-09-18T01:09:39.809Z,6.30
2022-09-18T01:10:38.490Z,5.70
2022-09-18T01:11:38.465Z,11.10
2022-09-18T01:12:38.460Z,6.50
2022-09-18T01:13:38.445Z,7.60
2022-09-18T01:14:38.433Z,8.50
2022-09-18T01:15:38.592Z,6.70
2022-09-18T01:16:38.483Z,3.70
2022-09-18T01:17:38.400Z,6.50
2022-09-18T01:18:38.400Z,7.20
2022-09-18T01:19:38.392Z,7.20
2022-09-18T01:20:38.367Z,7.30
2022-09-18T01:21:38.513Z,5.50
2022-09-18T01:22:38.345Z,6.00
2022-09-18T01:23:38.339Z,5.40
2022-09-18T01:24:38.320Z,5.60
2022-09-18T01:25:38.519Z,6.20
2022-09-18T01:26:38.294Z,6.90
2022-09-18T01:27:38.296Z,5.90
2022-09-18T01:28:38.287Z,7.30
2022-09-18T01:29:38.269Z,6.30
2022-09-18T01:30:38.255Z,7.00
2022-09-18T01:31:38.448Z,5.30
2022-09-18T01:32:38.236Z,6.30
2022-09-18T01:33:38.236Z,6.80
2022-09-18T01:34:38.210Z,7.60
2022-09-18T01:35:41.468Z,5.90
2022-09-18T01:36:38.187Z,7.90
2022-09-18T01:37:38.393Z,11.30
2022-09-18T01:38:38.172Z,5.90
2022-09-18T01:39:38.172Z,7.50
2022-09-18T01:40:38.201Z,5.50
2022-09-18T01:41:38.134Z,6.70
2022-09-18T01:42:38.123Z,5.10
2022-09-18T01:43:38.304Z,7.30
2022-09-18T01:44:38.102Z,7.40
2022-09-18T01:45:38.094Z,5.60
2022-09-18T01:46:38.131Z,7.20
2022-09-18T01:47:38.071Z,6.90
2022-09-18T01:48:38.063Z,7.20
2022-09-18T01:49:38.239Z,4.60
2022-09-18T01:50:38.034Z,5.40
2022-09-18T01:51:38.023Z,7.10
2022-09-18T01:52:38.032Z,7.30
2022-09-18T01:53:38.007Z,7.80
2022-09-18T01:54:38.017Z,4.60
2022-09-18T01:55:38.148Z,8.50
2022-09-18T01:56:37.967Z,7.40
2022-09-18T01:57:37.962Z,4.50
2022-09-18T01:58:37.970Z,9.30
2022-09-18T01:59:37.937Z,9.10
2022-09-18T02:00:37.934Z,9.40
2022-09-18T02:01:38.303Z,8.10
2022-09-18T02:02:38.030Z,5.50
2022-09-18T02:03:37.911Z,6.60
2022-09-18T02:04:37.879Z,7.20
2022-09-18T02:05:37.875Z,7.00
2022-09-18T02:06:37.878Z,5.60
2022-09-18T02:07:38.033Z,5.60
2022-09-18T02:08:37.845Z,10.00
2022-09-18T02:09:37.835Z,7.00
2022-09-18T02:10:37.820Z,7.20
2022-09-18T02:11:37.818Z,5.30
2022-09-18T02:12:37.796Z,7.50
2022-09-18T02:13:38.181Z,5.20
2022-09-18T02:14:37.775Z,7.80
2022-09-18T02:15:37.768Z,7.30
2022-09-18T02:16:37.750Z,6.20
2022-09-18T02:17:37.752Z,6.30
2022-09-18T02:18:37.734Z,5.00
2022-09-18T02:19:38.050Z,6.00
2022-09-18T02:20:37.704Z,8.10
2022-09-18T02:21:37.693Z,5.20
2022-09-18T02:22:37.685Z,6.30
2022-09-18T02:23:37.689Z,7.90
2022-09-18T02:24:37.665Z,5.50
2022-09-18T02:25:37.870Z,5.90
2022-09-18T02:26:37.635Z,7.40
2022-09-18T02:27:37.661Z,5.60
2022-09-18T02:28:37.669Z,7.70
2022-09-18T02:29:37.620Z,6.90
2022-09-18T02:30:37.594Z,9.00
2022-09-18T02:31:37.822Z,4.80
2022-09-18T02:32:37.570Z,6.30
2022-09-18T02:33:37.563Z,7.80
2022-09-18T02:34:37.564Z,7.30
2022-09-18T02:35:37.552Z,7.10
2022-09-18T02:36:37.538Z,8.30
2022-09-18T02:37:37.677Z,4.80
2022-09-18T02:38:37.518Z,7.00
2022-09-18T02:39:37.501Z,8.90
2022-09-18T02:40:37.538Z,5.70
2022-09-18T02:41:37.473Z,8.20
2022-09-18T02:42:37.488Z,6.70
2022-09-18T02:43:37.661Z,8.90
2022-09-18T02:44:37.442Z,6.60
2022-09-18T02:45:37.435Z,5.40
2022-09-18T02:46:37.622Z,9.50
2022-09-18T02:47:37.413Z,4.40
2022-09-18T02:48:37.419Z,6.70
2022-09-18T02:49:37.671Z,7.90
2022-09-18T02:50:37.373Z,6.40
2022-09-18T02:51:37.370Z,8.40
2022-09-18T02:52:37.358Z,5.70
2022-09-18T02:53:37.341Z,7.90
2022-09-18T02:54:37.338Z,6.30
2022-09-18T02:55:37.503Z,5.20
2022-09-18T02:56:37.303Z,5.60
2022-09-18T02:57:37.308Z,8.20
2022-09-18T02:58:37.298Z,6.80
2022-09-18T02:59:37.281Z,5.70
2022-09-18T03:00:37.272Z,6.70
2022-09-18T03:01:37.527Z,7.90
2022-09-18T03:02:37.295Z,7.30
2022-09-18T03:03:37.241Z,7.40
2022-09-18T03:04:37.225Z,6.00
2022-09-18T03:05:37.231Z,7.70
2022-09-18T03:06:37.202Z,5.40
2022-09-18T03:07:37.347Z,7.90
2022-09-18T03:08:37.193Z,7.70
2022-09-18T03:09:37.192Z,8.00
2022-09-18T03:10:37.160Z,7.10
2022-09-18T03:11:37.147Z,6.70
2022-09-18T03:12:37.131Z,8.30
2022-09-18T03:13:37.488Z,5.40
2022-09-18T03:14:37.113Z,6.90
2022-09-18T03:15:37.115Z,8.40
2022-09-18T03:16:37.172Z,10.20
2022-09-18T03:17:37.089Z,6.20
2022-09-18T03:18:37.092Z,7.60
2022-09-18T03:19:37.241Z,6.90
2022-09-18T03:20:37.047Z,6.90
2022-09-18T03:21:37.041Z,4.50
2022-09-18T03:22:37.029Z,6.50
2022-09-18T03:23:37.021Z,7.80
2022-09-18T03:24:37.014Z,5.50
2022-09-18T03:25:37.322Z,8.70
2022-09-18T03:26:36.986Z,6.70
2022-09-18T03:27:36.975Z,6.10
2022-09-18T03:28:36.970Z,7.70
2022-09-18T03:29:36.969Z,6.70
2022-09-18T03:30:36.948Z,8.70
2022-09-18T03:31:37.302Z,8.20
2022-09-18T03:32:36.931Z,5.80
2022-09-18T03:33:36.907Z,5.90
2022-09-18T03:34:36.902Z,5.30
2022-09-18T03:35:36.896Z,5.20
2022-09-18T03:36:36.878Z,8.10
2022-09-18T03:37:37.083Z,9.00
2022-09-18T03:38:36.860Z,8.20
2022-09-18T03:39:36.865Z,6.20
2022-09-18T03:40:36.875Z,6.40
2022-09-18T03:41:36.848Z,8.10
2022-09-18T03:42:36.816Z,7.20
2022-09-18T03:43:37.835Z,7.40
2022-09-18T03:44:36.827Z,7.30
2022-09-18T03:45:36.784Z,5.10
2022-09-18T03:46:36.853Z,6.40
2022-09-18T03:47:36.906Z,7.00
2022-09-18T03:48:36.750Z,8.10
2022-09-18T03:49:36.898Z,4.80
2022-09-18T03:50:36.724Z,5.40
2022-09-18T03:51:36.744Z,7.00
2022-09-18T03:52:36.704Z,5.20
2022-09-18T03:53:36.693Z,5.60
2022-09-18T03:54:36.690Z,6.00
2022-09-18T03:55:36.879Z,7.50
2022-09-18T03:56:36.689Z,6.10
2022-09-18T03:57:36.654Z,8.90
2022-09-18T03:58:36.644Z,5.90
2022-09-18T03:59:36.620Z,8.00
2022-09-18T04:00:36.614Z,6.40
2022-09-18T04:01:36.896Z,7.20
2022-09-18T04:02:36.642Z,5.50
2022-09-18T04:03:36.593Z,7.60
2022-09-18T04:04:36.569Z,6.70
2022-09-18T04:05:36.558Z,5.50
2022-09-18T04:06:36.549Z,7.30
2022-09-18T04:07:36.734Z,7.40
2022-09-18T04:08:36.534Z,5.90
2022-09-18T04:09:36.510Z,5.90
2022-09-18T04:10:36.514Z,5.50
2022-09-18T04:11:36.490Z,4.30
2022-09-18T04:12:36.476Z,6.40
2022-09-18T04:13:36.633Z,4.90
2022-09-18T04:14:36.483Z,8.60
2022-09-18T04:15:36.452Z,6.80
2022-09-18T04:16:36.543Z,6.50
2022-09-18T04:17:36.437Z,6.20
2022-09-18T04:18:36.444Z,6.20
2022-09-18T04:19:36.740Z,6.50
2022-09-18T04:20:36.400Z,5.90
2022-09-18T04:21:36.400Z,6.90
2022-09-18T04:22:36.394Z,7.90
2022-09-18T04:23:36.373Z,6.50
2022-09-18T04:24:36.370Z,3.90
2022-09-18T04:25:36.508Z,5.30
2022-09-18T04:26:36.353Z,4.60
2022-09-18T04:27:36.336Z,6.50
2022-09-18T04:28:36.340Z,6.80
2022-09-18T04:29:36.309Z,5.60
2022-09-18T04:30:36.288Z,6.70
2022-09-18T04:31:36.491Z,6.80
2022-09-18T04:32:36.261Z,5.50
2022-09-18T04:33:36.267Z,7.50
2022-09-18T04:34:36.268Z,6.80
2022-09-18T04:35:36.237Z,8.60
2022-09-18T04:36:36.249Z,6.00
2022-09-18T04:37:36.371Z,5.50
2022-09-18T04:38:36.224Z,5.80
2022-09-18T04:39:36.206Z,7.90
2022-09-18T04:40:36.236Z,5.80
2022-09-18T04:41:36.168Z,5.40
2022-09-18T04:42:36.183Z,6.30
2022-09-18T04:43:36.465Z,5.70
2022-09-18T04:44:36.167Z,5.50
2022-09-18T04:45:36.138Z,6.00
2022-09-18T04:46:36.195Z,6.90
2022-09-18T04:47:36.117Z,6.70
2022-09-18T04:48:36.107Z,6.80
2022-09-18T04:49:36.265Z,5.70
2022-09-18T04:50:36.092Z,5.40
2022-09-18T04:51:36.062Z,7.40
2022-09-18T04:52:36.053Z,5.70
2022-09-18T04:53:36.037Z,5.80
2022-09-18T04:54:36.033Z,5.90
2022-09-18T04:55:36.372Z,5.50
2022-09-18T04:56:36.018Z,6.60
2022-09-18T04:57:36.006Z,7.00
2022-09-18T04:58:36.028Z,7.00
2022-09-18T04:59:35.979Z,5.80
2022-09-18T05:00:36.114Z,4.60
2022-09-18T05:01:36.167Z,5.00
2022-09-18T05:02:35.957Z,5.80
2022-09-18T05:03:35.941Z,7.70
2022-09-18T05:04:35.923Z,5.30
2022-09-18T05:05:35.921Z,4.50
2022-09-18T05:06:35.898Z,7.30
2022-09-18T05:07:36.071Z,5.90
2022-09-18T05:08:35.908Z,4.10
2022-09-18T05:09:35.881Z,4.90
2022-09-18T05:10:35.858Z,6.50
2022-09-18T05:11:35.842Z,4.40
2022-09-18T05:12:35.851Z,6.50
2022-09-18T05:13:36.148Z,5.20
2022-09-18T05:14:35.811Z,6.80
2022-09-18T05:15:35.804Z,4.20
2022-09-18T05:16:35.853Z,4.80
2022-09-18T05:17:35.783Z,3.30
2022-09-18T05:18:35.785Z,4.50
2022-09-18T05:19:36.082Z,5.30
2022-09-18T05:20:35.746Z,4.90
2022-09-18T05:21:35.759Z,5.30
2022-09-18T05:22:35.716Z,8.60
2022-09-18T05:23:35.717Z,6.10
2022-09-18T05:24:35.713Z,6.20
2022-09-18T05:25:35.958Z,4.80
2022-09-18T05:26:35.695Z,4.30
2022-09-18T05:27:35.667Z,4.00
2022-09-18T05:28:35.674Z,4.80
2022-09-18T05:29:35.646Z,4.60
2022-09-18T05:30:35.634Z,4.50
2022-09-18T05:31:35.810Z,5.70
2022-09-18T05:32:35.645Z,6.20
2022-09-18T05:33:35.617Z,6.70
2022-09-18T05:34:35.597Z,5.60
2022-09-18T05:35:35.611Z,4.70
2022-09-18T05:36:35.566Z,5.20
2022-09-18T05:37:35.757Z,5.40
2022-09-18T05:38:35.535Z,4.70
2022-09-18T05:39:35.541Z,3.90
2022-09-18T05:40:35.661Z,3.80
2022-09-18T05:41:35.528Z,4.40
2022-09-18T05:42:35.512Z,5.20
2022-09-18T05:43:35.651Z,4.00
2022-09-18T05:44:35.498Z,5.20
2022-09-18T05:45:35.466Z,6.20
2022-09-18T05:46:35.480Z,4.40
2022-09-18T05:47:35.446Z,5.70
2022-09-18T05:48:35.437Z,5.00
2022-09-18T05:49:35.599Z,3.00
2022-09-18T05:50:35.429Z,5.10
2022-09-18T05:51:35.429Z,4.50
2022-09-18T05:52:35.384Z,6.00
2022-09-18T05:53:35.390Z,4.80
2022-09-18T05:54:35.383Z,4.10
2022-09-18T05:55:35.695Z,5.40
2022-09-18T05:56:35.349Z,5.70
2022-09-18T05:57:35.346Z,4.10
2022-09-18T05:58:35.342Z,3.00
2022-09-18T05:59:35.317Z,5.10
2022-09-18T06:00:35.332Z,4.80
2022-09-18T06:01:35.551Z,5.50
2022-09-18T06:02:35.336Z,3.70
2022-09-18T06:03:35.290Z,4.20
2022-09-18T06:04:35.268Z,4.00
2022-09-18T06:05:35.269Z,4.50
2022-09-18T06:06:35.252Z,4.20
2022-09-18T06:07:35.412Z,4.50
2022-09-18T06:08:35.235Z,5.00
2022-09-18T06:09:35.230Z,5.30
2022-09-18T06:10:35.204Z,3.80
2022-09-18T06:11:35.192Z,3.30
2022-09-18T06:12:35.185Z,5.70
2022-09-18T06:13:35.490Z,5.50
2022-09-18T06:14:35.162Z,5.00
2022-09-18T06:15:35.148Z,4.10
2022-09-18T06:16:39.905Z,5.30
2022-09-18T06:17:36.136Z,4.40
2022-09-18T06:18:35.123Z,4.80
2022-09-18T06:19:35.260Z,4.20
2022-09-18T06:20:35.074Z,5.40
2022-09-18T06:21:35.069Z,4.00
2022-09-18T06:22:35.058Z,5.10
2022-09-18T06:23:35.081Z,5.20
2022-09-18T06:24:35.034Z,3.90
2022-09-18T06:25:35.195Z,4.40
2022-09-18T06:26:35.023Z,5.40
2022-09-18T06:27:35.000Z,5.70
2022-09-18T06:28:35.000Z,6.10
2022-09-18T06:29:34.994Z,7.90
2022-09-18T06:30:34.977Z,7.00
2022-09-18T06:31:35.209Z,5.20
2022-09-18T06:32:34.952Z,6.40
2022-09-18T06:33:34.936Z,6.50
2022-09-18T06:34:38.636Z,4.30
2022-09-18T06:35:34.913Z,5.70
2022-09-18T06:36:34.905Z,5.80
2022-09-18T06:37:35.048Z,4.60
2022-09-18T06:38:34.883Z,5.80
2022-09-18T06:39:34.882Z,5.20
2022-09-18T06:40:34.963Z,6.20
2022-09-18T06:41:34.844Z,7.00
2022-09-18T06:42:34.849Z,5.90
2022-09-18T06:43:34.984Z,6.60
2022-09-18T06:44:34.819Z,3.10
2022-09-18T06:45:34.808Z,5.40
2022-09-18T06:46:34.835Z,5.80
2022-09-18T06:47:34.786Z,7.50
2022-09-18T06:48:34.773Z,4.90
2022-09-18T06:49:34.918Z,4.70
2022-09-18T06:50:34.753Z,3.70
2022-09-18T06:51:34.765Z,4.90
2022-09-18T06:52:34.733Z,4.50
2022-09-18T06:53:34.722Z,3.60
2022-09-18T06:54:34.715Z,4.00
2022-09-18T06:55:35.030Z,4.70
2022-09-18T06:56:34.703Z,5.10
2022-09-18T06:57:34.675Z,5.10
2022-09-18T06:58:34.660Z,4.00
2022-09-18T06:59:34.705Z,5.40
2022-09-18T07:00:34.697Z,5.00
2022-09-18T07:01:35.043Z,5.40
2022-09-18T07:02:34.646Z,4.90
2022-09-18T07:03:34.608Z,3.70
2022-09-18T07:04:34.621Z,4.80
2022-09-18T07:05:34.586Z,3.10
2022-09-18T07:06:34.579Z,6.10
2022-09-18T07:07:34.747Z,5.10
2022-09-18T07:08:34.562Z,3.90
2022-09-18T07:09:34.545Z,5.20
2022-09-18T07:10:34.542Z,4.70
2022-09-18T07:11:34.521Z,2.80
2022-09-18T07:12:34.526Z,3.90
2022-09-18T07:13:34.655Z,5.70
2022-09-18T07:14:34.510Z,6.00
2022-09-18T07:15:34.475Z,6.50
2022-09-18T07:16:34.531Z,3.70
2022-09-18T07:17:34.446Z,4.70
2022-09-18T07:18:34.456Z,3.70
2022-09-18T07:19:34.599Z,4.20
2022-09-18T07:20:34.424Z,3.90
2022-09-18T07:21:34.404Z,2.50
2022-09-18T07:22:34.419Z,5.00
2022-09-18T07:23:34.385Z,3.80
2022-09-18T07:24:34.394Z,6.50
2022-09-18T07:25:34.724Z,4.60
2022-09-18T07:26:34.357Z,4.10
2022-09-18T07:27:34.367Z,5.10
2022-09-18T07:28:34.335Z,5.00
2022-09-18T07:29:34.324Z,3.70
2022-09-18T07:30:34.315Z,4.80
2022-09-18T07:31:34.583Z,3.50
2022-09-18T07:32:34.300Z,3.20
2022-09-18T07:33:34.294Z,3.80
2022-09-18T07:34:34.274Z,3.00
2022-09-18T07:35:34.262Z,6.20
2022-09-18T07:36:34.251Z,5.70
2022-09-18T07:37:34.391Z,3.40
2022-09-18T07:38:34.234Z,4.40
2022-09-18T07:39:34.214Z,3.70
2022-09-18T07:40:34.265Z,3.20
2022-09-18T07:41:34.186Z,2.40
2022-09-18T07:42:34.199Z,2.10
2022-09-18T07:43:34.331Z,3.90
2022-09-18T07:44:34.161Z,5.60
2022-09-18T07:45:34.152Z,6.60
2022-09-18T07:46:34.220Z,5.70
2022-09-18T07:47:34.175Z,5.60
2022-09-18T07:48:34.129Z,4.90
2022-09-18T07:49:34.215Z,3.60
2022-09-18T07:50:34.095Z,6.30
2022-09-18T07:51:34.094Z,3.70
2022-09-18T07:52:34.080Z,4.20
2022-09-18T07:53:34.065Z,2.50
2022-09-18T07:54:34.070Z,2.60
2022-09-18T07:55:34.205Z,3.60
2022-09-18T07:56:34.099Z,2.90
2022-09-18T07:57:34.025Z,3.30
2022-09-18T07:58:34.019Z,5.60
2022-09-18T07:59:34.005Z,4.40
2022-09-18T08:00:34.019Z,5.20
2022-09-18T08:01:34.161Z,3.50
2022-09-18T08:02:34.158Z,5.40
2022-09-18T08:03:36.895Z,3.10
2022-09-18T08:04:34.956Z,4.20
2022-09-18T08:05:33.935Z,5.00
2022-09-18T08:06:35.207Z,4.90
2022-09-18T08:07:34.075Z,4.40
2022-09-18T08:08:33.904Z,3.20
2022-09-18T08:09:33.895Z,3.20
2022-09-18T08:10:33.905Z,5.10
2022-09-18T08:11:33.874Z,2.20
2022-09-18T08:12:33.874Z,4.90
2022-09-18T08:13:34.209Z,4.30
2022-09-18T08:14:33.844Z,8.00
2022-09-18T08:15:33.839Z,12.80
2022-09-18T08:16:33.894Z,7.60
2022-09-18T08:17:33.806Z,8.00
2022-09-18T08:18:33.796Z,11.30
2022-09-18T08:19:34.097Z,6.80
2022-09-18T08:20:33.765Z,4.40
2022-09-18T08:21:33.767Z,2.40
2022-09-18T08:22:33.756Z,4.20
2022-09-18T08:23:33.739Z,4.90
2022-09-18T08:24:33.741Z,5.50
2022-09-18T08:25:33.739Z,2.20
2022-09-18T08:26:33.702Z,5.50
2022-09-18T08:27:33.740Z,4.80
2022-09-18T08:28:33.682Z,3.10
2022-09-18T08:29:33.673Z,3.80
2022-09-18T08:30:33.666Z,4.50
2022-09-18T08:31:34.020Z,4.20
2022-09-18T08:32:33.645Z,3.80
2022-09-18T08:33:33.629Z,2.80
2022-09-18T08:34:33.650Z,2.80
2022-09-18T08:35:33.624Z,2.70
2022-09-18T08:36:33.599Z,3.30
2022-09-18T08:37:33.794Z,2.10
2022-09-18T08:38:33.575Z,3.90
2022-09-18T08:39:33.568Z,4.10
2022-09-18T08:40:33.596Z,1.50
2022-09-18T08:41:33.543Z,3.00
2022-09-18T08:42:33.537Z,4.00
2022-09-18T08:43:33.681Z,4.60
2022-09-18T08:44:33.520Z,3.50
2022-09-18T08:45:33.500Z,2.90
2022-09-18T08:46:33.516Z,3.20
2022-09-18T08:47:33.483Z,2.90
2022-09-18T08:48:33.455Z,2.70
2022-09-18T08:49:33.660Z,4.30
2022-09-18T08:50:38.180Z,4.30
2022-09-18T08:51:34.448Z,4.30
2022-09-18T08:52:33.418Z,3.20
2022-09-18T08:53:33.407Z,3.60
2022-09-18T08:54:33.397Z,3.80
2022-09-18T08:55:33.570Z,3.10
2022-09-18T08:56:33.375Z,2.50
2022-09-18T08:57:33.366Z,2.00
2022-09-18T08:58:33.348Z,3.50
2022-09-18T08:59:33.355Z,2.70
2022-09-18T09:00:33.399Z,2.90
2022-09-18T09:01:33.369Z,3.20
2022-09-18T09:02:33.375Z,3.40
2022-09-18T09:03:33.316Z,2.50
2022-09-18T09:04:33.286Z,4.70
2022-09-18T09:05:33.276Z,2.70
2022-09-18T09:06:33.272Z,3.60
2022-09-18T09:07:34.165Z,3.00
2022-09-18T09:08:33.275Z,3.30
2022-09-18T09:09:33.233Z,2.70
2022-09-18T09:10:33.219Z,2.70
2022-09-18T09:11:33.217Z,4.20
2022-09-18T09:12:33.203Z,3.40
2022-09-18T09:13:33.361Z,5.00
2022-09-18T09:14:55.483Z,2.30
2022-09-18T09:15:34.199Z,2.50
2022-09-18T09:16:33.265Z,3.80
2022-09-18T09:17:33.153Z,4.30
2022-09-18T09:18:33.125Z,3.90
2022-09-18T09:19:33.306Z,3.40
2022-09-18T09:20:33.116Z,3.10
2022-09-18T09:21:33.105Z,3.50
2022-09-18T09:22:33.093Z,4.30
2022-09-18T09:23:33.135Z,2.50
2022-09-18T09:24:33.077Z,4.50
2022-09-18T09:25:33.226Z,3.00
2022-09-18T09:26:33.049Z,2.50
2022-09-18T09:27:33.040Z,3.80
2022-09-18T09:28:33.037Z,2.90
2022-09-18T09:29:33.004Z,3.00
2022-09-18T09:30:33.005Z,3.00
2022-09-18T09:31:33.203Z,3.50
2022-09-18T09:32:32.985Z,4.60
2022-09-18T09:33:32.980Z,2.60
2022-09-18T09:34:32.959Z,3.30
2022-09-18T09:35:32.955Z,2.90
2022-09-18T09:36:32.954Z,3.40
2022-09-18T09:37:33.914Z,3.00
2022-09-18T09:38:32.915Z,2.10
2022-09-18T09:39:32.911Z,3.10
2022-09-18T09:40:32.954Z,4.20
2022-09-18T09:41:32.885Z,3.80
2022-09-18T09:42:32.885Z,4.30
2022-09-18T09:43:33.035Z,2.30
2022-09-18T09:44:32.872Z,3.80
2022-09-18T09:45:32.843Z,1.70
2022-09-18T09:46:32.882Z,2.60
2022-09-18T09:47:32.830Z,2.00
2022-09-18T09:48:32.829Z,2.40
2022-09-18T09:49:32.963Z,3.10
2022-09-18T09:50:32.784Z,2.30
2022-09-18T09:51:32.778Z,2.10
2022-09-18T09:52:32.797Z,1.80
2022-09-18T09:53:32.754Z,1.60
2022-09-18T09:54:32.744Z,2.60
2022-09-18T09:55:33.064Z,1.50
2022-09-18T09:56:32.723Z,2.00
2022-09-18T09:57:32.715Z,1.30
2022-09-18T09:58:48.250Z,2.40
2022-09-18T09:59:32.707Z,2.40
2022-09-18T10:00:32.691Z,2.10
2022-09-18T10:01:32.864Z,1.30
2022-09-18T10:02:32.744Z,2.10
2022-09-18T10:03:32.677Z,3.40
2022-09-18T10:04:32.661Z,1.90
2022-09-18T10:05:32.640Z,2.70
2022-09-18T10:06:32.927Z,2.40
2022-09-18T10:07:32.901Z,1.70
2022-09-18T10:08:32.606Z,2.10
2022-09-18T10:09:32.594Z,2.10
2022-09-18T10:10:32.583Z,2.40
2022-09-18T10:11:32.578Z,2.60
2022-09-18T10:12:42.254Z,3.70
2022-09-18T10:13:32.534Z,2.20
2022-09-18T10:14:32.516Z,4.00
2022-09-18T10:15:32.505Z,3.50
2022-09-18T10:16:32.594Z,3.70
2022-09-18T10:17:32.509Z,2.80
2022-09-18T10:18:32.644Z,2.70
2022-09-18T10:19:32.464Z,2.90
2022-09-18T10:20:32.462Z,3.10
2022-09-18T10:21:32.460Z,3.00
2022-09-18T10:22:32.444Z,2.50
2022-09-18T10:23:34.005Z,3.60
2022-09-18T10:24:32.745Z,2.60
2022-09-18T10:25:32.399Z,2.80
2022-09-18T10:26:32.406Z,3.40
2022-09-18T10:27:32.399Z,1.90
2022-09-18T10:28:32.379Z,2.90
2022-09-18T10:29:35.684Z,2.10
2022-09-18T10:30:32.543Z,2.60
2022-09-18T10:31:32.381Z,2.50
2022-09-18T10:32:32.340Z,3.50
2022-09-18T10:33:32.314Z,1.70
2022-09-18T10:34:32.304Z,3.70
2022-09-18T10:35:32.308Z,2.50
2022-09-18T10:36:32.483Z,3.70
2022-09-18T10:37:32.279Z,3.40
2022-09-18T10:38:32.257Z,2.40
2022-09-18T10:39:32.284Z,3.30
2022-09-18T10:40:32.295Z,2.70
2022-09-18T10:41:32.226Z,1.40
2022-09-18T10:42:32.398Z,1.70
2022-09-18T10:43:32.252Z,2.80
2022-09-18T10:44:32.199Z,3.20
2022-09-18T10:45:32.229Z,2.40
2022-09-18T10:46:32.211Z,2.60
2022-09-18T10:47:32.171Z,2.90
2022-09-18T10:48:32.328Z,2.10
2022-09-18T10:49:32.151Z,2.30
2022-09-18T10:50:34.434Z,5.30
2022-09-18T10:51:32.139Z,4.70
2022-09-18T10:52:32.183Z,2.20
2022-09-18T10:53:32.100Z,2.10
2022-09-18T10:54:32.263Z,3.00
2022-09-18T10:55:32.075Z,2.30
2022-09-18T10:56:32.067Z,3.00
2022-09-18T10:57:32.062Z,1.40
2022-09-18T10:58:32.044Z,1.40
2022-09-18T10:59:32.046Z,3.40
2022-09-18T11:00:32.249Z,3.80
2022-09-18T11:01:32.062Z,1.40
2022-09-18T11:02:32.040Z,1.40
2022-09-18T11:03:31.993Z,2.40
2022-09-18T11:04:31.984Z,1.70
2022-09-18T11:05:31.965Z,0.80
2022-09-18T11:06:32.125Z,1.80
2022-09-18T11:07:31.946Z,1.50
2022-09-18T11:08:31.938Z,1.00
2022-09-18T11:09:31.904Z,1.10
2022-09-18T11:10:31.942Z,2.50
2022-09-18T11:11:31.905Z,1.50
2022-09-18T11:12:32.088Z,0.90
2022-09-18T11:13:31.887Z,1.30
2022-09-18T11:14:31.891Z,1.40
2022-09-18T11:15:31.856Z,1.10
2022-09-18T11:16:31.892Z,1.80
2022-09-18T11:17:31.888Z,0.80
2022-09-18T11:18:32.105Z,1.10
2022-09-18T11:19:31.816Z,0.60
2022-09-18T11:20:31.814Z,0.40
2022-09-18T11:21:31.795Z,2.10
2022-09-18T11:22:31.792Z,1.90
2022-09-18T11:23:31.780Z,1.50
2022-09-18T11:24:31.931Z,1.30
2022-09-18T11:25:31.745Z,3.20
2022-09-18T11:26:31.750Z,2.20
2022-09-18T11:27:31.745Z,3.10
2022-09-18T11:28:31.727Z,1.40
2022-09-18T11:29:31.713Z,1.80
2022-09-18T11:30:31.863Z,2.60
2022-09-18T11:31:31.740Z,1.40
2022-09-18T11:32:31.676Z,2.80
2022-09-18T11:33:31.668Z,1.00
2022-09-18T11:34:31.652Z,2.30
2022-09-18T11:35:31.644Z,2.00
2022-09-18T11:36:31.814Z,2.00
2022-09-18T11:37:31.615Z,2.30
2022-09-18T11:38:31.619Z,2.00
2022-09-18T11:39:31.598Z,1.40
2022-09-18T11:40:31.678Z,2.10
2022-09-18T11:41:31.571Z,2.70
2022-09-18T11:42:31.741Z,1.80
2022-09-18T11:43:31.564Z,1.00
2022-09-18T11:44:31.573Z,1.40
2022-09-18T11:45:31.536Z,1.80
2022-09-18T11:46:31.578Z,1.10
2022-09-18T11:47:31.580Z,1.70
2022-09-18T11:48:31.761Z,1.60
2022-09-18T11:49:31.613Z,2.00
2022-09-18T11:50:31.475Z,2.30
2022-09-18T11:51:31.465Z,2.20
2022-09-18T11:52:31.461Z,1.30
2022-09-18T11:53:31.446Z,2.00
2022-09-18T11:54:31.695Z,1.80
2022-09-18T11:55:31.426Z,1.80
2022-09-18T11:56:31.416Z,2.80
2022-09-18T11:57:31.409Z,2.60
2022-09-18T11:58:31.394Z,2.80
2022-09-18T11:59:31.404Z,1.80
2022-09-18T12:00:31.627Z,2.70
2022-09-18T12:01:31.358Z,1.60
2022-09-18T12:02:31.487Z,1.80
2022-09-18T12:03:31.432Z,2.40
2022-09-18T12:04:31.326Z,1.80
2022-09-18T12:05:31.329Z,2.80
2022-09-18T12:06:31.529Z,2.60
2022-09-18T12:07:39.351Z,3.00
2022-09-18T12:08:29.937Z,1.10
2022-09-18T12:09:29.923Z,1.80
2022-09-18T12:10:29.901Z,2.20
2022-09-18T12:11:29.890Z,2.80
2022-09-18T12:12:30.074Z,1.80
2022-09-18T12:13:29.867Z,2.90
2022-09-18T12:14:29.867Z,1.90
2022-09-18T12:15:29.851Z,2.20
2022-09-18T12:16:29.902Z,1.50
2022-09-18T12:17:29.826Z,1.10
2022-09-18T12:18:30.127Z,3.10
2022-09-18T12:19:29.791Z,2.00
2022-09-18T12:20:29.786Z,3.20
2022-09-18T12:21:29.773Z,1.90
2022-09-18T12:22:29.759Z,2.50
2022-09-18T12:23:29.746Z,2.20
2022-09-18T12:24:29.908Z,1.40
2022-09-18T12:25:29.728Z,2.20
2022-09-18T12:26:29.724Z,2.40
2022-09-18T12:27:29.702Z,1.70
2022-09-18T12:28:29.684Z,1.70
2022-09-18T12:29:29.696Z,1.70
2022-09-18T12:30:29.823Z,2.20
2022-09-18T12:31:29.675Z,2.00
2022-09-18T12:32:29.641Z,1.80
2022-09-18T12:33:33.522Z,0.90
2022-09-18T12:34:29.624Z,1.00
2022-09-18T12:35:29.639Z,2.10
2022-09-18T12:36:29.770Z,1.80
2022-09-18T12:37:29.595Z,1.50
2022-09-18T12:38:29.867Z,2.60
2022-09-18T12:39:30.262Z,2.80
2022-09-18T12:40:30.271Z,3.10
2022-09-18T12:41:30.218Z,3.40
2022-09-18T12:42:30.506Z,3.40
2022-09-18T12:43:30.195Z,2.90
2022-09-18T12:44:30.174Z,1.20
2022-09-18T12:45:30.265Z,0.90
2022-09-18T12:46:30.145Z,1.50
2022-09-18T12:47:30.141Z,1.40
2022-09-18T12:48:30.299Z,1.20
2022-09-18T12:49:30.131Z,0.80
2022-09-18T12:50:30.109Z,2.30
2022-09-18T12:51:30.098Z,1.20
2022-09-18T12:52:30.087Z,1.30
2022-09-18T12:53:30.094Z,1.50
2022-09-18T12:54:30.224Z,0.90
2022-09-18T12:55:30.099Z,0.90
2022-09-18T12:56:30.045Z,1.20
2022-09-18T12:57:30.026Z,1.30
2022-09-18T12:58:30.020Z,1.50
2022-09-18T12:59:30.001Z,0.90
2022-09-18T13:00:30.208Z,1.00
2022-09-18T13:01:29.980Z,0.70
2022-09-18T13:02:29.997Z,1.10
2022-09-18T13:03:30.186Z,1.00
2022-09-18T13:04:30.628Z,1.10
2022-09-18T13:05:29.927Z,2.00
2022-09-18T13:06:30.173Z,1.30
2022-09-18T13:07:29.909Z,1.10
2022-09-18T13:08:29.991Z,1.40
2022-09-18T13:09:29.882Z,0.60
2022-09-18T13:10:29.948Z,1.50
2022-09-18T13:11:29.879Z,1.10
2022-09-18T13:12:30.194Z,1.40
2022-09-18T13:13:29.840Z,0.50
2022-09-18T13:14:29.820Z,0.70
2022-09-18T13:15:29.877Z,1.00
2022-09-18T13:16:30.588Z,1.90
2022-09-18T13:17:30.519Z,1.10
2022-09-18T13:18:31.082Z,0.60